Blue Rapids, Kansas
Current Conditions -  °F | °C
As of 4:15 AM on Thursday 27 Nov 2014 (Local Time) from KMYZ Reporting Station
Clear Clear  
Wind Chill:   Ceiling: Unl
Heat Index: 16°   Visibility: 10mi
Dew Point: 12°   Wind: 8mph
Humidity: 86%   Direction: 40°NE
Pressure: 30.46"   Gusts: NA
Location:  39.68°N, 96.66°W
Report Text: KMYZ 271015Z AUTO 04007KT 10SM CLR M09/M11 A3046 RMK AO2
Loading
Personal Weather Stations






























Interactive Weather Map New forecast layout! Learn more

10-Day Weather Forecast

Advertisements
Track Severe Weather on mobile